sensor_id;sensor_type;location;lat;lon;timestamp;temperature;humidity
74873;HTU21D;68776;44.762;37.698;2023-09-07T00:00:34;20.73;56.60
74873;HTU21D;68776;44.762;37.698;2023-09-07T00:01:35;20.73;56.61
74873;HTU21D;68776;44.762;37.698;2023-09-07T00:02:37;20.72;56.61
74873;HTU21D;68776;44.762;37.698;2023-09-07T00:03:39;20.71;56.61
74873;HTU21D;68776;44.762;37.698;2023-09-07T00:04:41;20.68;56.64
74873;HTU21D;68776;44.762;37.698;2023-09-07T00:05:45;20.66;56.67
74873;HTU21D;68776;44.762;37.698;2023-09-07T00:06:46;20.63;56.71
74873;HTU21D;68776;44.762;37.698;2023-09-07T00:07:46;20.63;56.74
74873;HTU21D;68776;44.762;37.698;2023-09-07T00:08:48;20.61;56.75
74873;HTU21D;68776;44.762;37.698;2023-09-07T00:09:49;20.59;56.77
74873;HTU21D;68776;44.762;37.698;2023-09-07T00:10:49;20.58;56.77
74873;HTU21D;68776;44.762;37.698;2023-09-07T00:11:51;20.56;56.81
74873;HTU21D;68776;44.762;37.698;2023-09-07T00:12:52;20.55;56.83
74873;HTU21D;68776;44.762;37.698;2023-09-07T00:13:53;20.55;56.85
74873;HTU21D;68776;44.762;37.698;2023-09-07T00:14:54;20.54;56.84
74873;HTU21D;68776;44.762;37.698;2023-09-07T00:15:58;20.54;56.87
74873;HTU21D;68776;44.762;37.698;2023-09-07T00:17:00;20.50;56.90
74873;HTU21D;68776;44.762;37.698;2023-09-07T00:18:01;20.47;56.96
74873;HTU21D;68776;44.762;37.698;2023-09-07T00:19:02;20.44;57.00
74873;HTU21D;68776;44.762;37.698;2023-09-07T00:20:04;20.41;57.08
74873;HTU21D;68776;44.762;37.698;2023-09-07T00:21:25;20.37;57.08
74873;HTU21D;68776;44.762;37.698;2023-09-07T00:22:26;20.35;57.13
74873;HTU21D;68776;44.762;37.698;2023-09-07T00:23:28;20.34;57.15
74873;HTU21D;68776;44.762;37.698;2023-09-07T00:24:30;20.33;57.16
74873;HTU21D;68776;44.762;37.698;2023-09-07T00:25:32;20.32;57.19
74873;HTU21D;68776;44.762;37.698;2023-09-07T00:26:33;20.30;57.21
74873;HTU21D;68776;44.762;37.698;2023-09-07T00:27:34;20.29;57.23
74873;HTU21D;68776;44.762;37.698;2023-09-07T00:28:35;20.28;57.26
74873;HTU21D;68776;44.762;37.698;2023-09-07T00:29:36;20.26;57.29
74873;HTU21D;68776;44.762;37.698;2023-09-07T00:30:36;20.25;57.29
74873;HTU21D;68776;44.762;37.698;2023-09-07T00:31:37;20.26;57.29
74873;HTU21D;68776;44.762;37.698;2023-09-07T00:32:39;20.26;57.29
74873;HTU21D;68776;44.762;37.698;2023-09-07T00:33:40;20.24;57.33
74873;HTU21D;68776;44.762;37.698;2023-09-07T00:34:41;20.21;57.39
74873;HTU21D;68776;44.762;37.698;2023-09-07T00:35:42;20.19;57.44
74873;HTU21D;68776;44.762;37.698;2023-09-07T00:36:43;20.16;57.51
74873;HTU21D;68776;44.762;37.698;2023-09-07T00:37:44;20.15;57.50
74873;HTU21D;68776;44.762;37.698;2023-09-07T00:38:45;20.14;57.53
74873;HTU21D;68776;44.762;37.698;2023-09-07T00:39:46;20.14;57.55
74873;HTU21D;68776;44.762;37.698;2023-09-07T00:40:47;20.13;57.57
74873;HTU21D;68776;44.762;37.698;2023-09-07T00:41:48;20.10;57.63
74873;HTU21D;68776;44.762;37.698;2023-09-07T00:42:49;20.07;57.67
74873;HTU21D;68776;44.762;37.698;2023-09-07T00:43:50;20.05;57.71
74873;HTU21D;68776;44.762;37.698;2023-09-07T00:44:51;20.03;57.75
74873;HTU21D;68776;44.762;37.698;2023-09-07T00:45:52;20.01;57.77
74873;HTU21D;68776;44.762;37.698;2023-09-07T00:46:53;20.01;57.78
74873;HTU21D;68776;44.762;37.698;2023-09-07T00:47:54;20.00;57.79
74873;HTU21D;68776;44.762;37.698;2023-09-07T00:48:56;19.98;57.81
74873;HTU21D;68776;44.762;37.698;2023-09-07T00:49:57;19.96;57.85
74873;HTU21D;68776;44.762;37.698;2023-09-07T00:50:59;19.94;57.87
74873;HTU21D;68776;44.762;37.698;2023-09-07T00:52:01;19.94;57.90
74873;HTU21D;68776;44.762;37.698;2023-09-07T00:53:02;19.94;57.90
74873;HTU21D;68776;44.762;37.698;2023-09-07T00:54:04;19.92;57.90
74873;HTU21D;68776;44.762;37.698;2023-09-07T00:55:05;19.90;57.91
74873;HTU21D;68776;44.762;37.698;2023-09-07T00:56:07;19.89;57.95
74873;HTU21D;68776;44.762;37.698;2023-09-07T00:57:09;19.88;57.97
74873;HTU21D;68776;44.762;37.698;2023-09-07T00:58:10;19.87;57.98
74873;HTU21D;68776;44.762;37.698;2023-09-07T00:59:13;19.86;58.01
74873;HTU21D;68776;44.762;37.698;2023-09-07T01:00:14;19.85;58.02
74873;HTU21D;68776;44.762;37.698;2023-09-07T01:01:15;19.83;58.05
74873;HTU21D;68776;44.762;37.698;2023-09-07T01:02:16;19.83;58.06
74873;HTU21D;68776;44.762;37.698;2023-09-07T01:03:17;19.82;58.07
74873;HTU21D;68776;44.762;37.698;2023-09-07T01:04:18;19.80;58.09
74873;HTU21D;68776;44.762;37.698;2023-09-07T01:05:21;19.81;58.09
74873;HTU21D;68776;44.762;37.698;2023-09-07T01:06:39;19.79;58.09
74873;HTU21D;68776;44.762;37.698;2023-09-07T01:07:45;19.80;58.06
74873;HTU21D;68776;44.762;37.698;2023-09-07T01:08:51;19.76;58.08
74873;HTU21D;68776;44.762;37.698;2023-09-07T01:09:59;19.75;58.11
74873;HTU21D;68776;44.762;37.698;2023-09-07T01:11:01;19.73;58.14
74873;HTU21D;68776;44.762;37.698;2023-09-07T01:12:04;19.71;58.16
74873;HTU21D;68776;44.762;37.698;2023-09-07T01:13:05;19.71;58.18
74873;HTU21D;68776;44.762;37.698;2023-09-07T01:14:06;19.70;58.20
74873;HTU21D;68776;44.762;37.698;2023-09-07T01:15:07;19.69;58.22
74873;HTU21D;68776;44.762;37.698;2023-09-07T01:16:10;19.67;58.25
74873;HTU21D;68776;44.762;37.698;2023-09-07T01:17:12;19.66;58.27
74873;HTU21D;68776;44.762;37.698;2023-09-07T01:18:15;19.65;58.30
74873;HTU21D;68776;44.762;37.698;2023-09-07T01:19:16;19.65;58.33
74873;HTU21D;68776;44.762;37.698;2023-09-07T01:20:17;19.62;58.38
74873;HTU21D;68776;44.762;37.698;2023-09-07T01:21:19;19.62;58.37
74873;HTU21D;68776;44.762;37.698;2023-09-07T01:22:21;19.60;58.38
74873;HTU21D;68776;44.762;37.698;2023-09-07T01:23:26;19.59;58.41
74873;HTU21D;68776;44.762;37.698;2023-09-07T01:24:28;19.58;58.45
74873;HTU21D;68776;44.762;37.698;2023-09-07T01:25:31;19.56;58.50
74873;HTU21D;68776;44.762;37.698;2023-09-07T01:26:34;19.55;58.53
74873;HTU21D;68776;44.762;37.698;2023-09-07T01:27:35;19.53;58.54
74873;HTU21D;68776;44.762;37.698;2023-09-07T01:28:37;19.53;58.55
74873;HTU21D;68776;44.762;37.698;2023-09-07T01:29:39;19.53;58.54
74873;HTU21D;68776;44.762;37.698;2023-09-07T01:30:40;19.53;58.53
74873;HTU21D;68776;44.762;37.698;2023-09-07T01:31:42;19.54;58.52
74873;HTU21D;68776;44.762;37.698;2023-09-07T01:32:44;19.54;58.53
74873;HTU21D;68776;44.762;37.698;2023-09-07T01:33:45;19.51;58.56
74873;HTU21D;68776;44.762;37.698;2023-09-07T01:34:46;19.52;58.57
74873;HTU21D;68776;44.762;37.698;2023-09-07T01:35:47;19.51;58.56
74873;HTU21D;68776;44.762;37.698;2023-09-07T01:36:48;19.53;58.54
74873;HTU21D;68776;44.762;37.698;2023-09-07T01:37:49;19.51;58.58
74873;HTU21D;68776;44.762;37.698;2023-09-07T01:38:50;19.51;58.58
74873;HTU21D;68776;44.762;37.698;2023-09-07T01:39:51;19.51;58.58
74873;HTU21D;68776;44.762;37.698;2023-09-07T01:40:52;19.52;58.58
74873;HTU21D;68776;44.762;37.698;2023-09-07T01:41:53;19.50;58.58
74873;HTU21D;68776;44.762;37.698;2023-09-07T01:42:54;19.50;58.61
74873;HTU21D;68776;44.762;37.698;2023-09-07T01:43:54;19.48;58.61
74873;HTU21D;68776;44.762;37.698;2023-09-07T01:44:56;19.47;58.64
74873;HTU21D;68776;44.762;37.698;2023-09-07T01:45:57;19.47;58.64
74873;HTU21D;68776;44.762;37.698;2023-09-07T01:46:59;19.48;58.61
74873;HTU21D;68776;44.762;37.698;2023-09-07T01:48:01;19.50;58.58
74873;HTU21D;68776;44.762;37.698;2023-09-07T01:49:05;19.50;58.55
74873;HTU21D;68776;44.762;37.698;2023-09-07T01:50:07;19.51;58.55
74873;HTU21D;68776;44.762;37.698;2023-09-07T01:51:08;19.50;58.54
74873;HTU21D;68776;44.762;37.698;2023-09-07T01:52:09;19.50;58.58
74873;HTU21D;68776;44.762;37.698;2023-09-07T01:53:10;19.48;58.60
74873;HTU21D;68776;44.762;37.698;2023-09-07T01:54:11;19.47;58.61
74873;HTU21D;68776;44.762;37.698;2023-09-07T01:55:12;19.46;58.64
74873;HTU21D;68776;44.762;37.698;2023-09-07T01:56:13;19.45;58.67
74873;HTU21D;68776;44.762;37.698;2023-09-07T01:57:14;19.44;58.68
74873;HTU21D;68776;44.762;37.698;2023-09-07T01:58:15;19.43;58.72
74873;HTU21D;68776;44.762;37.698;2023-09-07T01:59:16;19.42;58.74
74873;HTU21D;68776;44.762;37.698;2023-09-07T02:00:17;19.39;58.78
74873;HTU21D;68776;44.762;37.698;2023-09-07T02:01:25;19.38;58.78
74873;HTU21D;68776;44.762;37.698;2023-09-07T02:02:27;19.38;58.74
74873;HTU21D;68776;44.762;37.698;2023-09-07T02:03:28;19.39;58.77
74873;HTU21D;68776;44.762;37.698;2023-09-07T02:04:29;19.37;58.76
74873;HTU21D;68776;44.762;37.698;2023-09-07T02:05:30;19.37;58.80
74873;HTU21D;68776;44.762;37.698;2023-09-07T02:06:32;19.35;58.83
74873;HTU21D;68776;44.762;37.698;2023-09-07T02:07:33;19.33;58.84
74873;HTU21D;68776;44.762;37.698;2023-09-07T02:08:34;19.33;58.87
74873;HTU21D;68776;44.762;37.698;2023-09-07T02:09:35;19.35;58.86
74873;HTU21D;68776;44.762;37.698;2023-09-07T02:10:36;19.32;58.87
74873;HTU21D;68776;44.762;37.698;2023-09-07T02:11:37;19.32;58.89
74873;HTU21D;68776;44.762;37.698;2023-09-07T02:12:40;19.31;58.87
74873;HTU21D;68776;44.762;37.698;2023-09-07T02:13:42;19.32;58.88
74873;HTU21D;68776;44.762;37.698;2023-09-07T02:14:43;19.33;58.85
74873;HTU21D;68776;44.762;37.698;2023-09-07T02:15:44;19.36;58.83
74873;HTU21D;68776;44.762;37.698;2023-09-07T02:16:45;19.35;58.82
74873;HTU21D;68776;44.762;37.698;2023-09-07T02:17:46;19.35;58.82
74873;HTU21D;68776;44.762;37.698;2023-09-07T02:18:50;19.33;58.85
74873;HTU21D;68776;44.762;37.698;2023-09-07T02:19:51;19.32;58.87
74873;HTU21D;68776;44.762;37.698;2023-09-07T02:20:52;19.32;58.89
74873;HTU21D;68776;44.762;37.698;2023-09-07T02:21:53;19.30;58.89
74873;HTU21D;68776;44.762;37.698;2023-09-07T02:22:55;19.29;58.90
74873;HTU21D;68776;44.762;37.698;2023-09-07T02:23:56;19.29;58.93
74873;HTU21D;68776;44.762;37.698;2023-09-07T02:24:57;19.27;58.93
74873;HTU21D;68776;44.762;37.698;2023-09-07T02:25:59;19.28;58.94
74873;HTU21D;68776;44.762;37.698;2023-09-07T02:27:00;19.26;58.97
74873;HTU21D;68776;44.762;37.698;2023-09-07T02:28:01;19.25;58.99
74873;HTU21D;68776;44.762;37.698;2023-09-07T02:29:02;19.25;58.99
74873;HTU21D;68776;44.762;37.698;2023-09-07T02:30:08;19.24;59.00
74873;HTU21D;68776;44.762;37.698;2023-09-07T02:31:09;19.24;58.99
74873;HTU21D;68776;44.762;37.698;2023-09-07T02:32:10;19.23;59.01
74873;HTU21D;68776;44.762;37.698;2023-09-07T02:33:11;19.23;58.99
74873;HTU21D;68776;44.762;37.698;2023-09-07T02:34:12;19.24;58.94
74873;HTU21D;68776;44.762;37.698;2023-09-07T02:35:13;19.26;58.90
74873;HTU21D;68776;44.762;37.698;2023-09-07T02:36:15;19.27;58.89
74873;HTU21D;68776;44.762;37.698;2023-09-07T02:37:16;19.26;58.90
74873;HTU21D;68776;44.762;37.698;2023-09-07T02:38:17;19.26;58.90
74873;HTU21D;68776;44.762;37.698;2023-09-07T02:39:18;19.25;58.94
74873;HTU21D;68776;44.762;37.698;2023-09-07T02:40:19;19.21;58.98
74873;HTU21D;68776;44.762;37.698;2023-09-07T02:41:20;19.20;59.03
74873;HTU21D;68776;44.762;37.698;2023-09-07T02:42:22;19.17;59.05
74873;HTU21D;68776;44.762;37.698;2023-09-07T02:43:25;19.16;59.09
74873;HTU21D;68776;44.762;37.698;2023-09-07T02:44:26;19.15;59.11
74873;HTU21D;68776;44.762;37.698;2023-09-07T02:45:27;19.14;59.13
74873;HTU21D;68776;44.762;37.698;2023-09-07T02:46:28;19.13;59.13
74873;HTU21D;68776;44.762;37.698;2023-09-07T02:47:29;19.13;59.14
74873;HTU21D;68776;44.762;37.698;2023-09-07T02:48:30;19.13;59.15
74873;HTU21D;68776;44.762;37.698;2023-09-07T02:49:31;19.13;59.11
74873;HTU21D;68776;44.762;37.698;2023-09-07T02:50:33;19.13;59.13
74873;HTU21D;68776;44.762;37.698;2023-09-07T02:51:35;19.13;59.11
74873;HTU21D;68776;44.762;37.698;2023-09-07T02:52:36;19.12;59.10
74873;HTU21D;68776;44.762;37.698;2023-09-07T02:53:37;19.12;59.12
74873;HTU21D;68776;44.762;37.698;2023-09-07T02:54:38;19.10;59.13
74873;HTU21D;68776;44.762;37.698;2023-09-07T02:55:39;19.10;59.14
74873;HTU21D;68776;44.762;37.698;2023-09-07T02:56:40;19.12;59.12
74873;HTU21D;68776;44.762;37.698;2023-09-07T02:57:42;19.12;59.10
74873;HTU21D;68776;44.762;37.698;2023-09-07T02:58:43;19.14;59.06
74873;HTU21D;68776;44.762;37.698;2023-09-07T02:59:44;19.14;59.03
74873;HTU21D;68776;44.762;37.698;2023-09-07T03:00:45;19.14;59.04
74873;HTU21D;68776;44.762;37.698;2023-09-07T03:01:49;19.14;59.05
74873;HTU21D;68776;44.762;37.698;2023-09-07T03:02:51;19.12;59.07
74873;HTU21D;68776;44.762;37.698;2023-09-07T03:03:52;19.12;59.06
74873;HTU21D;68776;44.762;37.698;2023-09-07T03:04:54;19.12;59.06
74873;HTU21D;68776;44.762;37.698;2023-09-07T03:06:10;19.11;59.06
74873;HTU21D;68776;44.762;37.698;2023-09-07T03:07:14;19.12;59.03
74873;HTU21D;68776;44.762;37.698;2023-09-07T03:08:15;19.11;59.03
74873;HTU21D;68776;44.762;37.698;2023-09-07T03:09:16;19.11;59.03
74873;HTU21D;68776;44.762;37.698;2023-09-07T03:10:16;19.11;59.04
74873;HTU21D;68776;44.762;37.698;2023-09-07T03:11:19;19.11;59.04
74873;HTU21D;68776;44.762;37.698;2023-09-07T03:12:22;19.12;59.02
74873;HTU21D;68776;44.762;37.698;2023-09-07T03:13:23;19.13;59.01
74873;HTU21D;68776;44.762;37.698;2023-09-07T03:14:24;19.13;58.99
74873;HTU21D;68776;44.762;37.698;2023-09-07T03:15:25;19.12;58.99
74873;HTU21D;68776;44.762;37.698;2023-09-07T03:16:27;19.12;58.99
74873;HTU21D;68776;44.762;37.698;2023-09-07T03:17:29;19.12;58.99
74873;HTU21D;68776;44.762;37.698;2023-09-07T03:18:30;19.13;58.99
74873;HTU21D;68776;44.762;37.698;2023-09-07T03:19:31;19.13;58.96
74873;HTU21D;68776;44.762;37.698;2023-09-07T03:20:33;19.15;58.94
74873;HTU21D;68776;44.762;37.698;2023-09-07T03:21:35;19.16;58.93
74873;HTU21D;68776;44.762;37.698;2023-09-07T03:22:36;19.16;58.92
74873;HTU21D;68776;44.762;37.698;2023-09-07T03:23:37;19.16;58.90
74873;HTU21D;68776;44.762;37.698;2023-09-07T03:24:40;19.16;58.90
74873;HTU21D;68776;44.762;37.698;2023-09-07T03:25:41;19.18;58.87
74873;HTU21D;68776;44.762;37.698;2023-09-07T03:26:42;19.18;58.83
74873;HTU21D;68776;44.762;37.698;2023-09-07T03:27:44;19.21;58.80
74873;HTU21D;68776;44.762;37.698;2023-09-07T03:28:47;19.24;58.78
74873;HTU21D;68776;44.762;37.698;2023-09-07T03:29:50;19.26;58.75
74873;HTU21D;68776;44.762;37.698;2023-09-07T03:30:54;19.26;58.71
74873;HTU21D;68776;44.762;37.698;2023-09-07T03:31:56;19.28;58.69
74873;HTU21D;68776;44.762;37.698;2023-09-07T03:32:56;19.30;58.65
74873;HTU21D;68776;44.762;37.698;2023-09-07T03:33:58;19.32;58.64
74873;HTU21D;68776;44.762;37.698;2023-09-07T03:35:00;19.36;58.62
74873;HTU21D;68776;44.762;37.698;2023-09-07T03:36:01;19.37;58.58
74873;HTU21D;68776;44.762;37.698;2023-09-07T03:37:04;19.39;58.56
74873;HTU21D;68776;44.762;37.698;2023-09-07T03:38:07;19.42;58.51
74873;HTU21D;68776;44.762;37.698;2023-09-07T03:39:08;19.44;58.48
74873;HTU21D;68776;44.762;37.698;2023-09-07T03:40:09;19.46;58.48
74873;HTU21D;68776;44.762;37.698;2023-09-07T03:41:10;19.48;58.45
74873;HTU21D;68776;44.762;37.698;2023-09-07T03:42:11;19.52;58.41
74873;HTU21D;68776;44.762;37.698;2023-09-07T03:43:12;19.55;58.36
74873;HTU21D;68776;44.762;37.698;2023-09-07T03:44:13;19.58;58.30
74873;HTU21D;68776;44.762;37.698;2023-09-07T03:45:14;19.60;58.24
74873;HTU21D;68776;44.762;37.698;2023-09-07T03:46:15;19.63;58.23
74873;HTU21D;68776;44.762;37.698;2023-09-07T03:47:17;19.67;58.19
74873;HTU21D;68776;44.762;37.698;2023-09-07T03:48:18;19.70;58.16
74873;HTU21D;68776;44.762;37.698;2023-09-07T03:49:20;19.72;58.14
74873;HTU21D;68776;44.762;37.698;2023-09-07T03:50:21;19.74;58.12
74873;HTU21D;68776;44.762;37.698;2023-09-07T03:51:22;19.77;58.07
74873;HTU21D;68776;44.762;37.698;2023-09-07T03:52:24;19.81;58.05
74873;HTU21D;68776;44.762;37.698;2023-09-07T03:53:28;19.85;58.00
74873;HTU21D;68776;44.762;37.698;2023-09-07T03:54:31;19.87;57.95
74873;HTU21D;68776;44.762;37.698;2023-09-07T03:55:41;19.90;57.92
74873;HTU21D;68776;44.762;37.698;2023-09-07T03:56:43;19.95;57.85
74873;HTU21D;68776;44.762;37.698;2023-09-07T03:57:44;19.99;57.82
74873;HTU21D;68776;44.762;37.698;2023-09-07T03:58:45;20.00;57.84
74873;HTU21D;68776;44.762;37.698;2023-09-07T03:59:48;20.02;57.80
74873;HTU21D;68776;44.762;37.698;2023-09-07T04:00:49;20.06;57.71
74873;HTU21D;68776;44.762;37.698;2023-09-07T04:01:51;20.09;57.62
74873;HTU21D;68776;44.762;37.698;2023-09-07T04:02:52;20.12;57.63
74873;HTU21D;68776;44.762;37.698;2023-09-07T04:03:53;20.14;57.64
74873;HTU21D;68776;44.762;37.698;2023-09-07T04:04:54;20.16;57.65
74873;HTU21D;68776;44.762;37.698;2023-09-07T04:05:58;20.18;57.61
74873;HTU21D;68776;44.762;37.698;2023-09-07T04:06:59;20.20;57.58
74873;HTU21D;68776;44.762;37.698;2023-09-07T04:08:00;20.24;57.54
74873;HTU21D;68776;44.762;37.698;2023-09-07T04:09:04;20.28;57.49
74873;HTU21D;68776;44.762;37.698;2023-09-07T04:10:05;20.31;57.45
74873;HTU21D;68776;44.762;37.698;2023-09-07T04:11:06;20.35;57.41
74873;HTU21D;68776;44.762;37.698;2023-09-07T04:12:09;20.39;57.37
74873;HTU21D;68776;44.762;37.698;2023-09-07T04:13:10;20.39;57.39
74873;HTU21D;68776;44.762;37.698;2023-09-07T04:14:12;20.41;57.37
74873;HTU21D;68776;44.762;37.698;2023-09-07T04:15:13;20.45;57.32
74873;HTU21D;68776;44.762;37.698;2023-09-07T04:16:13;20.46;57.32
74873;HTU21D;68776;44.762;37.698;2023-09-07T04:17:14;20.49;57.31
74873;HTU21D;68776;44.762;37.698;2023-09-07T04:18:15;20.51;57.31
74873;HTU21D;68776;44.762;37.698;2023-09-07T04:19:18;20.54;57.29
74873;HTU21D;68776;44.762;37.698;2023-09-07T04:20:19;20.58;57.22
74873;HTU21D;68776;44.762;37.698;2023-09-07T04:21:20;20.62;57.15
74873;HTU21D;68776;44.762;37.698;2023-09-07T04:22:22;20.66;57.10
74873;HTU21D;68776;44.762;37.698;2023-09-07T04:23:23;20.71;57.06
74873;HTU21D;68776;44.762;37.698;2023-09-07T04:24:24;20.75;57.00
74873;HTU21D;68776;44.762;37.698;2023-09-07T04:25:25;20.78;56.97
74873;HTU21D;68776;44.762;37.698;2023-09-07T04:26:26;20.79;56.97
74873;HTU21D;68776;44.762;37.698;2023-09-07T04:27:27;20.83;56.92
74873;HTU21D;68776;44.762;37.698;2023-09-07T04:28:28;20.87;56.89
74873;HTU21D;68776;44.762;37.698;2023-09-07T04:29:29;20.92;56.84
74873;HTU21D;68776;44.762;37.698;2023-09-07T04:30:30;20.93;56.80
74873;HTU21D;68776;44.762;37.698;2023-09-07T04:31:32;21.00;56.72
74873;HTU21D;68776;44.762;37.698;2023-09-07T04:32:33;21.03;56.67
74873;HTU21D;68776;44.762;37.698;2023-09-07T04:33:34;21.05;56.67
74873;HTU21D;68776;44.762;37.698;2023-09-07T04:34:36;21.08;56.66
74873;HTU21D;68776;44.762;37.698;2023-09-07T04:35:36;21.10;56.60
74873;HTU21D;68776;44.762;37.698;2023-09-07T04:36:37;21.11;56.52
74873;HTU21D;68776;44.762;37.698;2023-09-07T04:37:38;21.15;56.39
74873;HTU21D;68776;44.762;37.698;2023-09-07T04:38:41;21.17;56.29
74873;HTU21D;68776;44.762;37.698;2023-09-07T04:39:42;21.20;56.19
74873;HTU21D;68776;44.762;37.698;2023-09-07T04:40:43;21.21;56.12
74873;HTU21D;68776;44.762;37.698;2023-09-07T04:41:44;21.22;56.11
74873;HTU21D;68776;44.762;37.698;2023-09-07T04:42:45;21.24;56.10
74873;HTU21D;68776;44.762;37.698;2023-09-07T04:43:46;21.27;56.12
74873;HTU21D;68776;44.762;37.698;2023-09-07T04:44:47;21.31;56.10
74873;HTU21D;68776;44.762;37.698;2023-09-07T04:45:48;21.34;56.10
74873;HTU21D;68776;44.762;37.698;2023-09-07T04:46:49;21.39;56.03
74873;HTU21D;68776;44.762;37.698;2023-09-07T04:47:52;21.43;56.00
74873;HTU21D;68776;44.762;37.698;2023-09-07T04:48:53;21.45;55.98
74873;HTU21D;68776;44.762;37.698;2023-09-07T04:49:54;21.50;55.94
74873;HTU21D;68776;44.762;37.698;2023-09-07T04:50:59;21.54;55.90
74873;HTU21D;68776;44.762;37.698;2023-09-07T04:52:00;21.58;55.85
74873;HTU21D;68776;44.762;37.698;2023-09-07T04:53:01;21.61;55.81
74873;HTU21D;68776;44.762;37.698;2023-09-07T04:54:03;21.66;55.78
74873;HTU21D;68776;44.762;37.698;2023-09-07T04:55:05;21.73;55.70
74873;HTU21D;68776;44.762;37.698;2023-09-07T04:56:07;21.77;55.62
74873;HTU21D;68776;44.762;37.698;2023-09-07T04:57:09;21.83;55.54
74873;HTU21D;68776;44.762;37.698;2023-09-07T04:58:10;21.88;55.50
74873;HTU21D;68776;44.762;37.698;2023-09-07T04:59:11;21.92;55.47
74873;HTU21D;68776;44.762;37.698;2023-09-07T05:00:12;21.97;55.40
74873;HTU21D;68776;44.762;37.698;2023-09-07T05:01:13;21.99;55.36
74873;HTU21D;68776;44.762;37.698;2023-09-07T05:02:16;22.04;55.39
74873;HTU21D;68776;44.762;37.698;2023-09-07T05:03:18;22.09;55.38
74873;HTU21D;68776;44.762;37.698;2023-09-07T05:04:19;22.14;55.39
74873;HTU21D;68776;44.762;37.698;2023-09-07T05:05:20;22.24;55.35
74873;HTU21D;68776;44.762;37.698;2023-09-07T05:06:21;22.32;55.27
74873;HTU21D;68776;44.762;37.698;2023-09-07T05:07:23;22.39;55.14
74873;HTU21D;68776;44.762;37.698;2023-09-07T05:08:25;22.47;55.04
74873;HTU21D;68776;44.762;37.698;2023-09-07T05:09:26;22.54;54.94
74873;HTU21D;68776;44.762;37.698;2023-09-07T05:10:29;22.61;54.82
74873;HTU21D;68776;44.762;37.698;2023-09-07T05:11:30;22.68;54.72
74873;HTU21D;68776;44.762;37.698;2023-09-07T05:12:31;22.77;54.59
74873;HTU21D;68776;44.762;37.698;2023-09-07T05:13:32;22.83;54.46
74873;HTU21D;68776;44.762;37.698;2023-09-07T05:14:35;22.91;54.36
74873;HTU21D;68776;44.762;37.698;2023-09-07T05:15:36;23.00;54.20
74873;HTU21D;68776;44.762;37.698;2023-09-07T05:16:37;23.07;54.06
74873;HTU21D;68776;44.762;37.698;2023-09-07T05:17:38;23.16;53.90
74873;HTU21D;68776;44.762;37.698;2023-09-07T05:18:41;23.23;53.75
74873;HTU21D;68776;44.762;37.698;2023-09-07T05:19:44;23.29;53.59
74873;HTU21D;68776;44.762;37.698;2023-09-07T05:20:45;23.32;53.59
74873;HTU21D;68776;44.762;37.698;2023-09-07T05:21:46;23.39;53.55
74873;HTU21D;68776;44.762;37.698;2023-09-07T05:22:47;23.41;53.46
74873;HTU21D;68776;44.762;37.698;2023-09-07T05:23:49;23.44;53.42
74873;HTU21D;68776;44.762;37.698;2023-09-07T05:24:49;23.47;53.22
74873;HTU21D;68776;44.762;37.698;2023-09-07T05:25:53;23.53;53.06
74873;HTU21D;68776;44.762;37.698;2023-09-07T05:26:55;23.58;53.02
74873;HTU21D;68776;44.762;37.698;2023-09-07T05:27:56;23.64;52.99
74873;HTU21D;68776;44.762;37.698;2023-09-07T05:28:57;23.68;52.92
74873;HTU21D;68776;44.762;37.698;2023-09-07T05:29:59;23.72;52.69
74873;HTU21D;68776;44.762;37.698;2023-09-07T05:31:00;23.80;52.46
74873;HTU21D;68776;44.762;37.698;2023-09-07T05:32:01;23.86;52.24
74873;HTU21D;68776;44.762;37.698;2023-09-07T05:33:02;23.94;52.21
74873;HTU21D;68776;44.762;37.698;2023-09-07T05:34:03;23.99;52.16
74873;HTU21D;68776;44.762;37.698;2023-09-07T05:35:04;24.04;52.08
74873;HTU21D;68776;44.762;37.698;2023-09-07T05:36:06;24.12;51.98
74873;HTU21D;68776;44.762;37.698;2023-09-07T05:37:07;24.15;51.89
74873;HTU21D;68776;44.762;37.698;2023-09-07T05:38:08;24.16;51.85
74873;HTU21D;68776;44.762;37.698;2023-09-07T05:39:10;24.18;51.83
74873;HTU21D;68776;44.762;37.698;2023-09-07T05:40:11;24.25;51.72
74873;HTU21D;68776;44.762;37.698;2023-09-07T05:41:12;24.30;51.60
74873;HTU21D;68776;44.762;37.698;2023-09-07T05:42:13;24.35;51.54
74873;HTU21D;68776;44.762;37.698;2023-09-07T05:43:14;24.40;51.41
74873;HTU21D;68776;44.762;37.698;2023-09-07T05:44:15;24.43;51.23
74873;HTU21D;68776;44.762;37.698;2023-09-07T05:45:16;24.47;51.14
74873;HTU21D;68776;44.762;37.698;2023-09-07T05:46:17;24.53;51.04
74873;HTU21D;68776;44.762;37.698;2023-09-07T05:47:18;24.58;50.95
74873;HTU21D;68776;44.762;37.698;2023-09-07T05:48:19;24.63;50.78
74873;HTU21D;68776;44.762;37.698;2023-09-07T05:49:21;24.69;50.62
74873;HTU21D;68776;44.762;37.698;2023-09-07T05:50:22;24.75;50.45
74873;HTU21D;68776;44.762;37.698;2023-09-07T05:51:23;24.80;50.30
74873;HTU21D;68776;44.762;37.698;2023-09-07T05:52:24;24.90;50.17
74873;HTU21D;68776;44.762;37.698;2023-09-07T05:53:25;24.93;50.02
74873;HTU21D;68776;44.762;37.698;2023-09-07T05:54:27;24.97;49.94
74873;HTU21D;68776;44.762;37.698;2023-09-07T05:55:28;25.02;49.89
74873;HTU21D;68776;44.762;37.698;2023-09-07T05:56:29;25.06;49.85
74873;HTU21D;68776;44.762;37.698;2023-09-07T05:57:31;25.13;49.65
74873;HTU21D;68776;44.762;37.698;2023-09-07T05:58:32;25.18;49.50
74873;HTU21D;68776;44.762;37.698;2023-09-07T05:59:34;25.23;49.39
74873;HTU21D;68776;44.762;37.698;2023-09-07T06:00:35;25.32;49.27
74873;HTU21D;68776;44.762;37.698;2023-09-07T06:01:38;25.36;49.13
74873;HTU21D;68776;44.762;37.698;2023-09-07T06:02:40;25.40;49.00
74873;HTU21D;68776;44.762;37.698;2023-09-07T06:03:43;25.45;48.85
74873;HTU21D;68776;44.762;37.698;2023-09-07T06:04:44;25.46;48.79
74873;HTU21D;68776;44.762;37.698;2023-09-07T06:05:45;25.50;48.70
74873;HTU21D;68776;44.762;37.698;2023-09-07T06:06:47;25.56;48.66
74873;HTU21D;68776;44.762;37.698;2023-09-07T06:07:48;25.64;48.55
74873;HTU21D;68776;44.762;37.698;2023-09-07T06:08:50;25.68;48.51
74873;HTU21D;68776;44.762;37.698;2023-09-07T06:09:51;25.74;48.31
74873;HTU21D;68776;44.762;37.698;2023-09-07T06:10:53;25.73;48.08
74873;HTU21D;68776;44.762;37.698;2023-09-07T06:11:54;25.72;48.12
74873;HTU21D;68776;44.762;37.698;2023-09-07T06:12:56;25.78;48.08
74873;HTU21D;68776;44.762;37.698;2023-09-07T06:13:58;25.86;47.92
74873;HTU21D;68776;44.762;37.698;2023-09-07T06:15:02;25.86;47.80
74873;HTU21D;68776;44.762;37.698;2023-09-07T06:16:06;25.88;47.81
74873;HTU21D;68776;44.762;37.698;2023-09-07T06:17:07;25.90;47.74
74873;HTU21D;68776;44.762;37.698;2023-09-07T06:18:08;25.96;47.63